< < Back
Terminal Aerodrome Forecast


Current Version              Previous Versions:   1  2  3  4  5  6  7  8  9  

Terminal Aerodrome Forecast

443
FTUS42 KGSP 242320
TAFAND
TAF
KAND 242320Z 2500/2524 23003KT P6SM FEW250
     FM250500 00000KT P6SM FEW070
     FM251500 24007KT P6SM SCT060=

Latest METAR

714
SAUS70 KWBC 250300 RRA
MTRAND
METAR KAND 250256Z AUTO 00000KT 10SM CLR 18/13 A3016 RMK AO2 SLP206
T01830128 53015


USA.gov is the U.S. government's official web portal to all federal, state and local government web resources and services.